sensor_id;sensor_type;location;lat;lon;timestamp;P1;durP1;ratioP1;P2;durP2;ratioP2
69463;SDS011;56665;41.106;16.688;2023-08-17T00:01:17;15.70;;;13.68;;
69463;SDS011;56665;41.106;16.688;2023-08-17T00:04:20;17.67;;;13.70;;
69463;SDS011;56665;41.106;16.688;2023-08-17T00:07:24;17.48;;;14.25;;
69463;SDS011;56665;41.106;16.688;2023-08-17T00:10:28;18.58;;;13.77;;
69463;SDS011;56665;41.106;16.688;2023-08-17T00:13:33;15.20;;;13.60;;
69463;SDS011;56665;41.106;16.688;2023-08-17T00:16:37;18.10;;;14.43;;
69463;SDS011;56665;41.106;16.688;2023-08-17T00:19:40;17.00;;;14.00;;
69463;SDS011;56665;41.106;16.688;2023-08-17T00:22:44;17.17;;;13.90;;
69463;SDS011;56665;41.106;16.688;2023-08-17T00:25:48;15.50;;;13.23;;
69463;SDS011;56665;41.106;16.688;2023-08-17T00:28:52;17.88;;;13.40;;
69463;SDS011;56665;41.106;16.688;2023-08-17T00:31:56;15.85;;;13.02;;
69463;SDS011;56665;41.106;16.688;2023-08-17T00:35:00;17.02;;;12.68;;
69463;SDS011;56665;41.106;16.688;2023-08-17T00:38:05;16.08;;;12.85;;
69463;SDS011;56665;41.106;16.688;2023-08-17T00:41:09;16.67;;;13.80;;
69463;SDS011;56665;41.106;16.688;2023-08-17T00:44:14;16.25;;;12.93;;
69463;SDS011;56665;41.106;16.688;2023-08-17T00:47:21;16.42;;;13.55;;
69463;SDS011;56665;41.106;16.688;2023-08-17T00:50:25;14.55;;;12.80;;
69463;SDS011;56665;41.106;16.688;2023-08-17T00:53:31;15.38;;;13.20;;
69463;SDS011;56665;41.106;16.688;2023-08-17T00:56:36;15.48;;;12.98;;
69463;SDS011;56665;41.106;16.688;2023-08-17T00:59:40;16.88;;;13.75;;
69463;SDS011;56665;41.106;16.688;2023-08-17T01:02:44;14.55;;;13.07;;
69463;SDS011;56665;41.106;16.688;2023-08-17T01:05:54;15.10;;;13.27;;
69463;SDS011;56665;41.106;16.688;2023-08-17T01:08:53;15.55;;;13.07;;
69463;SDS011;56665;41.106;16.688;2023-08-17T01:15:31;17.23;;;13.00;;
69463;SDS011;56665;41.106;16.688;2023-08-17T01:18:39;15.35;;;12.85;;
69463;SDS011;56665;41.106;16.688;2023-08-17T01:21:50;15.73;;;13.77;;
69463;SDS011;56665;41.106;16.688;2023-08-17T01:24:56;15.88;;;13.27;;
69463;SDS011;56665;41.106;16.688;2023-08-17T01:28:03;17.88;;;13.25;;
69463;SDS011;56665;41.106;16.688;2023-08-17T01:31:11;17.52;;;13.20;;
69463;SDS011;56665;41.106;16.688;2023-08-17T01:34:18;14.63;;;12.52;;
69463;SDS011;56665;41.106;16.688;2023-08-17T01:37:28;18.65;;;12.75;;
69463;SDS011;56665;41.106;16.688;2023-08-17T01:40:36;16.55;;;13.23;;
69463;SDS011;56665;41.106;16.688;2023-08-17T01:43:41;14.77;;;13.02;;
69463;SDS011;56665;41.106;16.688;2023-08-17T01:46:50;17.40;;;12.93;;
69463;SDS011;56665;41.106;16.688;2023-08-17T01:49:53;15.68;;;12.95;;
69463;SDS011;56665;41.106;16.688;2023-08-17T01:52:58;15.75;;;13.13;;
69463;SDS011;56665;41.106;16.688;2023-08-17T01:56:03;15.27;;;12.93;;
69463;SDS011;56665;41.106;16.688;2023-08-17T01:59:06;16.05;;;13.07;;
69463;SDS011;56665;41.106;16.688;2023-08-17T02:02:10;14.52;;;12.90;;
69463;SDS011;56665;41.106;16.688;2023-08-17T02:05:15;14.90;;;12.23;;
69463;SDS011;56665;41.106;16.688;2023-08-17T02:08:23;14.45;;;12.50;;
69463;SDS011;56665;41.106;16.688;2023-08-17T02:11:26;15.55;;;13.27;;
69463;SDS011;56665;41.106;16.688;2023-08-17T02:14:31;15.85;;;13.43;;
69463;SDS011;56665;41.106;16.688;2023-08-17T02:17:36;16.45;;;13.50;;
69463;SDS011;56665;41.106;16.688;2023-08-17T02:20:40;14.18;;;12.68;;
69463;SDS011;56665;41.106;16.688;2023-08-17T02:23:43;14.77;;;12.50;;
69463;SDS011;56665;41.106;16.688;2023-08-17T02:26:48;15.70;;;13.48;;
69463;SDS011;56665;41.106;16.688;2023-08-17T02:29:52;14.98;;;12.68;;
69463;SDS011;56665;41.106;16.688;2023-08-17T02:32:56;16.05;;;12.80;;
69463;SDS011;56665;41.106;16.688;2023-08-17T02:36:01;17.40;;;13.63;;
69463;SDS011;56665;41.106;16.688;2023-08-17T02:39:05;14.77;;;12.70;;
69463;SDS011;56665;41.106;16.688;2023-08-17T02:42:08;14.82;;;12.93;;
69463;SDS011;56665;41.106;16.688;2023-08-17T02:45:12;17.05;;;13.25;;
69463;SDS011;56665;41.106;16.688;2023-08-17T02:48:16;15.82;;;13.30;;
69463;SDS011;56665;41.106;16.688;2023-08-17T02:51:20;15.30;;;12.90;;
69463;SDS011;56665;41.106;16.688;2023-08-17T02:54:24;17.60;;;13.00;;
69463;SDS011;56665;41.106;16.688;2023-08-17T02:57:27;15.27;;;12.65;;
69463;SDS011;56665;41.106;16.688;2023-08-17T03:00:32;15.23;;;13.60;;
69463;SDS011;56665;41.106;16.688;2023-08-17T03:03:36;14.73;;;12.73;;
69463;SDS011;56665;41.106;16.688;2023-08-17T03:06:40;14.93;;;12.82;;
69463;SDS011;56665;41.106;16.688;2023-08-17T03:09:44;16.10;;;12.77;;
69463;SDS011;56665;41.106;16.688;2023-08-17T03:12:48;15.60;;;12.52;;
69463;SDS011;56665;41.106;16.688;2023-08-17T03:15:54;13.20;;;11.80;;
69463;SDS011;56665;41.106;16.688;2023-08-17T03:18:59;15.68;;;12.30;;
69463;SDS011;56665;41.106;16.688;2023-08-17T03:22:03;14.27;;;11.77;;
69463;SDS011;56665;41.106;16.688;2023-08-17T03:25:07;14.40;;;12.30;;
69463;SDS011;56665;41.106;16.688;2023-08-17T03:28:13;14.13;;;12.48;;
69463;SDS011;56665;41.106;16.688;2023-08-17T03:31:16;14.05;;;12.40;;
69463;SDS011;56665;41.106;16.688;2023-08-17T03:34:21;15.60;;;11.85;;
69463;SDS011;56665;41.106;16.688;2023-08-17T03:37:25;13.77;;;12.25;;
69463;SDS011;56665;41.106;16.688;2023-08-17T03:40:29;13.13;;;11.73;;
69463;SDS011;56665;41.106;16.688;2023-08-17T03:43:33;16.02;;;12.48;;
69463;SDS011;56665;41.106;16.688;2023-08-17T03:46:37;14.35;;;11.93;;
69463;SDS011;56665;41.106;16.688;2023-08-17T03:49:42;14.35;;;11.32;;
69463;SDS011;56665;41.106;16.688;2023-08-17T03:52:46;13.45;;;10.77;;
69463;SDS011;56665;41.106;16.688;2023-08-17T03:55:51;15.25;;;11.80;;
69463;SDS011;56665;41.106;16.688;2023-08-17T03:58:55;18.75;;;12.05;;
69463;SDS011;56665;41.106;16.688;2023-08-17T04:01:58;12.95;;;11.20;;
69463;SDS011;56665;41.106;16.688;2023-08-17T04:05:04;18.75;;;11.82;;
69463;SDS011;56665;41.106;16.688;2023-08-17T04:08:08;15.88;;;11.60;;
69463;SDS011;56665;41.106;16.688;2023-08-17T04:11:14;14.52;;;12.25;;
69463;SDS011;56665;41.106;16.688;2023-08-17T04:14:18;14.65;;;11.50;;
69463;SDS011;56665;41.106;16.688;2023-08-17T04:17:22;15.38;;;12.18;;
69463;SDS011;56665;41.106;16.688;2023-08-17T04:20:28;14.50;;;12.20;;
69463;SDS011;56665;41.106;16.688;2023-08-17T04:23:32;17.10;;;13.65;;
69463;SDS011;56665;41.106;16.688;2023-08-17T04:26:35;14.88;;;12.82;;
69463;SDS011;56665;41.106;16.688;2023-08-17T04:29:40;15.35;;;13.40;;
69463;SDS011;56665;41.106;16.688;2023-08-17T04:32:44;19.60;;;13.75;;
69463;SDS011;56665;41.106;16.688;2023-08-17T04:35:53;21.02;;;14.30;;
69463;SDS011;56665;41.106;16.688;2023-08-17T04:38:57;17.63;;;14.52;;
69463;SDS011;56665;41.106;16.688;2023-08-17T04:42:05;16.77;;;14.00;;
69463;SDS011;56665;41.106;16.688;2023-08-17T04:45:11;20.35;;;14.57;;
69463;SDS011;56665;41.106;16.688;2023-08-17T04:48:19;26.95;;;15.77;;
69463;SDS011;56665;41.106;16.688;2023-08-17T04:51:24;21.35;;;14.68;;
69463;SDS011;56665;41.106;16.688;2023-08-17T04:54:29;20.92;;;15.05;;
69463;SDS011;56665;41.106;16.688;2023-08-17T04:57:33;16.27;;;14.05;;
69463;SDS011;56665;41.106;16.688;2023-08-17T05:00:37;17.88;;;14.20;;
69463;SDS011;56665;41.106;16.688;2023-08-17T05:03:41;16.13;;;14.07;;
69463;SDS011;56665;41.106;16.688;2023-08-17T05:06:45;18.35;;;13.68;;
69463;SDS011;56665;41.106;16.688;2023-08-17T05:09:50;16.38;;;14.27;;
69463;SDS011;56665;41.106;16.688;2023-08-17T05:12:55;16.65;;;12.90;;
69463;SDS011;56665;41.106;16.688;2023-08-17T05:15:59;15.35;;;13.45;;
69463;SDS011;56665;41.106;16.688;2023-08-17T05:19:03;16.70;;;12.25;;
69463;SDS011;56665;41.106;16.688;2023-08-17T05:22:09;14.07;;;11.93;;
69463;SDS011;56665;41.106;16.688;2023-08-17T05:25:14;14.98;;;12.20;;
69463;SDS011;56665;41.106;16.688;2023-08-17T05:28:18;13.98;;;11.98;;
69463;SDS011;56665;41.106;16.688;2023-08-17T05:31:23;15.43;;;12.40;;
69463;SDS011;56665;41.106;16.688;2023-08-17T05:34:29;15.98;;;12.40;;
69463;SDS011;56665;41.106;16.688;2023-08-17T05:37:34;16.13;;;12.38;;
69463;SDS011;56665;41.106;16.688;2023-08-17T05:40:38;15.13;;;11.80;;
69463;SDS011;56665;41.106;16.688;2023-08-17T05:43:41;14.05;;;11.30;;
69463;SDS011;56665;41.106;16.688;2023-08-17T05:46:45;15.50;;;11.30;;
69463;SDS011;56665;41.106;16.688;2023-08-17T05:49:52;13.27;;;11.20;;
69463;SDS011;56665;41.106;16.688;2023-08-17T05:52:56;14.30;;;10.45;;
69463;SDS011;56665;41.106;16.688;2023-08-17T05:56:00;12.10;;;10.50;;
69463;SDS011;56665;41.106;16.688;2023-08-17T05:59:05;13.05;;;10.10;;
69463;SDS011;56665;41.106;16.688;2023-08-17T06:02:09;11.50;;;10.30;;
69463;SDS011;56665;41.106;16.688;2023-08-17T06:05:13;11.95;;;9.90;;
69463;SDS011;56665;41.106;16.688;2023-08-17T06:08:17;10.63;;;9.50;;
69463;SDS011;56665;41.106;16.688;2023-08-17T06:11:21;11.80;;;9.70;;
69463;SDS011;56665;41.106;16.688;2023-08-17T06:14:26;11.48;;;9.15;;
69463;SDS011;56665;41.106;16.688;2023-08-17T06:17:30;12.63;;;9.02;;
69463;SDS011;56665;41.106;16.688;2023-08-17T06:20:33;10.65;;;8.90;;
69463;SDS011;56665;41.106;16.688;2023-08-17T06:23:38;10.55;;;8.55;;
69463;SDS011;56665;41.106;16.688;2023-08-17T06:26:41;9.73;;;8.73;;
69463;SDS011;56665;41.106;16.688;2023-08-17T06:29:47;10.98;;;8.40;;
69463;SDS011;56665;41.106;16.688;2023-08-17T06:32:51;10.27;;;8.90;;
69463;SDS011;56665;41.106;16.688;2023-08-17T06:35:55;13.05;;;9.15;;
69463;SDS011;56665;41.106;16.688;2023-08-17T06:38:58;10.40;;;9.30;;
69463;SDS011;56665;41.106;16.688;2023-08-17T06:42:04;11.27;;;9.32;;
69463;SDS011;56665;41.106;16.688;2023-08-17T06:45:08;11.68;;;8.75;;
69463;SDS011;56665;41.106;16.688;2023-08-17T06:48:13;10.48;;;8.30;;
69463;SDS011;56665;41.106;16.688;2023-08-17T06:51:16;12.10;;;8.38;;
69463;SDS011;56665;41.106;16.688;2023-08-17T06:54:20;9.52;;;7.70;;
69463;SDS011;56665;41.106;16.688;2023-08-17T06:57:24;12.13;;;7.90;;
69463;SDS011;56665;41.106;16.688;2023-08-17T07:00:28;10.10;;;7.82;;
69463;SDS011;56665;41.106;16.688;2023-08-17T07:03:33;12.35;;;7.88;;
69463;SDS011;56665;41.106;16.688;2023-08-17T07:06:37;10.25;;;8.15;;
69463;SDS011;56665;41.106;16.688;2023-08-17T07:09:41;10.35;;;7.60;;
69463;SDS011;56665;41.106;16.688;2023-08-17T07:12:45;9.10;;;7.63;;
69463;SDS011;56665;41.106;16.688;2023-08-17T07:15:50;8.25;;;7.32;;
69463;SDS011;56665;41.106;16.688;2023-08-17T07:18:55;8.82;;;7.90;;
69463;SDS011;56665;41.106;16.688;2023-08-17T07:21:59;8.77;;;7.80;;
69463;SDS011;56665;41.106;16.688;2023-08-17T07:25:03;8.85;;;7.88;;
69463;SDS011;56665;41.106;16.688;2023-08-17T07:28:07;9.50;;;8.20;;
69463;SDS011;56665;41.106;16.688;2023-08-17T07:31:11;9.35;;;7.35;;
69463;SDS011;56665;41.106;16.688;2023-08-17T07:34:14;11.30;;;8.00;;
69463;SDS011;56665;41.106;16.688;2023-08-17T07:37:19;11.43;;;7.47;;
69463;SDS011;56665;41.106;16.688;2023-08-17T07:40:23;9.90;;;7.32;;
69463;SDS011;56665;41.106;16.688;2023-08-17T07:43:27;12.63;;;7.20;;
69463;SDS011;56665;41.106;16.688;2023-08-17T07:46:32;12.50;;;9.77;;
69463;SDS011;56665;41.106;16.688;2023-08-17T07:49:37;16.42;;;12.88;;
69463;SDS011;56665;41.106;16.688;2023-08-17T07:52:40;16.33;;;14.32;;
69463;SDS011;56665;41.106;16.688;2023-08-17T07:55:45;15.07;;;10.50;;
69463;SDS011;56665;41.106;16.688;2023-08-17T07:58:49;12.13;;;8.52;;
69463;SDS011;56665;41.106;16.688;2023-08-17T08:01:53;14.57;;;8.27;;
69463;SDS011;56665;41.106;16.688;2023-08-17T08:04:56;11.20;;;7.65;;
69463;SDS011;56665;41.106;16.688;2023-08-17T08:08:00;10.20;;;7.57;;
69463;SDS011;56665;41.106;16.688;2023-08-17T08:11:04;9.88;;;7.50;;
69463;SDS011;56665;41.106;16.688;2023-08-17T08:14:08;9.45;;;8.07;;
69463;SDS011;56665;41.106;16.688;2023-08-17T08:17:12;8.57;;;7.47;;
69463;SDS011;56665;41.106;16.688;2023-08-17T08:20:16;8.23;;;7.40;;
69463;SDS011;56665;41.106;16.688;2023-08-17T08:23:20;7.80;;;7.00;;
69463;SDS011;56665;41.106;16.688;2023-08-17T08:26:23;8.20;;;7.40;;
69463;SDS011;56665;41.106;16.688;2023-08-17T08:29:27;8.43;;;7.60;;
69463;SDS011;56665;41.106;16.688;2023-08-17T08:32:31;9.40;;;7.53;;
69463;SDS011;56665;41.106;16.688;2023-08-17T08:35:35;8.95;;;8.07;;
69463;SDS011;56665;41.106;16.688;2023-08-17T08:38:38;9.00;;;8.10;;
69463;SDS011;56665;41.106;16.688;2023-08-17T08:41:42;8.83;;;8.13;;
69463;SDS011;56665;41.106;16.688;2023-08-17T08:44:46;10.88;;;8.10;;
69463;SDS011;56665;41.106;16.688;2023-08-17T08:47:50;8.93;;;8.02;;
69463;SDS011;56665;41.106;16.688;2023-08-17T08:50:55;8.60;;;7.80;;
69463;SDS011;56665;41.106;16.688;2023-08-17T08:54:02;9.27;;;8.00;;
69463;SDS011;56665;41.106;16.688;2023-08-17T08:57:12;9.43;;;8.50;;
69463;SDS011;56665;41.106;16.688;2023-08-17T09:00:17;9.57;;;7.93;;
69463;SDS011;56665;41.106;16.688;2023-08-17T09:03:22;8.75;;;7.72;;
69463;SDS011;56665;41.106;16.688;2023-08-17T09:06:26;9.43;;;8.13;;
69463;SDS011;56665;41.106;16.688;2023-08-17T09:09:31;14.73;;;8.20;;
69463;SDS011;56665;41.106;16.688;2023-08-17T09:12:36;12.43;;;7.50;;
69463;SDS011;56665;41.106;16.688;2023-08-17T09:15:43;12.40;;;7.47;;
69463;SDS011;56665;41.106;16.688;2023-08-17T09:18:49;11.93;;;8.00;;
69463;SDS011;56665;41.106;16.688;2023-08-17T09:21:56;12.15;;;8.02;;
69463;SDS011;56665;41.106;16.688;2023-08-17T09:25:00;10.75;;;8.07;;
69463;SDS011;56665;41.106;16.688;2023-08-17T09:28:07;12.90;;;7.38;;
69463;SDS011;56665;41.106;16.688;2023-08-17T09:31:12;14.60;;;7.78;;
69463;SDS011;56665;41.106;16.688;2023-08-17T09:34:16;9.40;;;7.22;;
69463;SDS011;56665;41.106;16.688;2023-08-17T09:37:21;11.18;;;7.88;;
69463;SDS011;56665;41.106;16.688;2023-08-17T09:40:26;14.25;;;8.20;;
69463;SDS011;56665;41.106;16.688;2023-08-17T09:43:32;11.30;;;7.57;;
69463;SDS011;56665;41.106;16.688;2023-08-17T09:46:37;13.25;;;7.78;;
69463;SDS011;56665;41.106;16.688;2023-08-17T09:49:42;10.93;;;7.38;;
69463;SDS011;56665;41.106;16.688;2023-08-17T09:52:45;14.32;;;7.50;;
69463;SDS011;56665;41.106;16.688;2023-08-17T09:55:49;10.82;;;7.53;;
69463;SDS011;56665;41.106;16.688;2023-08-17T09:58:55;10.55;;;7.93;;
69463;SDS011;56665;41.106;16.688;2023-08-17T10:01:58;15.13;;;7.85;;
69463;SDS011;56665;41.106;16.688;2023-08-17T10:05:03;13.27;;;7.78;;
69463;SDS011;56665;41.106;16.688;2023-08-17T10:08:09;9.77;;;7.68;;
69463;SDS011;56665;41.106;16.688;2023-08-17T10:11:15;15.77;;;7.70;;
69463;SDS011;56665;41.106;16.688;2023-08-17T10:14:22;11.13;;;7.82;;
69463;SDS011;56665;41.106;16.688;2023-08-17T10:17:34;11.05;;;7.50;;
69463;SDS011;56665;41.106;16.688;2023-08-17T10:21:01;10.88;;;7.75;;
69463;SDS011;56665;41.106;16.688;2023-08-17T10:24:08;11.20;;;7.70;;
69463;SDS011;56665;41.106;16.688;2023-08-17T10:27:13;10.40;;;7.55;;
69463;SDS011;56665;41.106;16.688;2023-08-17T10:30:17;13.45;;;7.60;;
69463;SDS011;56665;41.106;16.688;2023-08-17T10:33:21;14.80;;;7.93;;
69463;SDS011;56665;41.106;16.688;2023-08-17T10:36:25;10.57;;;8.50;;
69463;SDS011;56665;41.106;16.688;2023-08-17T10:39:30;13.68;;;9.20;;
69463;SDS011;56665;41.106;16.688;2023-08-17T10:42:35;18.80;;;11.48;;
69463;SDS011;56665;41.106;16.688;2023-08-17T10:45:39;22.88;;;9.93;;
69463;SDS011;56665;41.106;16.688;2023-08-17T10:48:44;16.38;;;8.90;;
69463;SDS011;56665;41.106;16.688;2023-08-17T10:51:59;9.98;;;7.88;;
69463;SDS011;56665;41.106;16.688;2023-08-17T10:55:05;16.65;;;7.95;;
69463;SDS011;56665;41.106;16.688;2023-08-17T10:58:11;12.32;;;7.88;;
69463;SDS011;56665;41.106;16.688;2023-08-17T11:01:18;9.27;;;7.93;;
69463;SDS011;56665;41.106;16.688;2023-08-17T11:04:37;11.93;;;8.77;;
69463;SDS011;56665;41.106;16.688;2023-08-17T11:07:42;13.63;;;7.97;;
69463;SDS011;56665;41.106;16.688;2023-08-17T11:14:02;12.27;;;8.40;;
69463;SDS011;56665;41.106;16.688;2023-08-17T11:17:05;11.13;;;8.25;;
69463;SDS011;56665;41.106;16.688;2023-08-17T11:20:12;12.20;;;8.52;;
69463;SDS011;56665;41.106;16.688;2023-08-17T11:23:16;19.20;;;8.60;;
69463;SDS011;56665;41.106;16.688;2023-08-17T11:26:22;18.13;;;9.13;;
69463;SDS011;56665;41.106;16.688;2023-08-17T11:29:28;19.13;;;9.07;;
69463;SDS011;56665;41.106;16.688;2023-08-17T11:32:36;12.48;;;8.85;;
69463;SDS011;56665;41.106;16.688;2023-08-17T11:35:39;14.68;;;8.80;;
69463;SDS011;56665;41.106;16.688;2023-08-17T11:38:44;12.90;;;8.85;;
69463;SDS011;56665;41.106;16.688;2023-08-17T11:41:48;14.68;;;9.18;;
69463;SDS011;56665;41.106;16.688;2023-08-17T11:44:52;10.98;;;9.02;;
69463;SDS011;56665;41.106;16.688;2023-08-17T11:47:57;11.10;;;9.30;;
69463;SDS011;56665;41.106;16.688;2023-08-17T11:51:00;12.05;;;9.18;;
69463;SDS011;56665;41.106;16.688;2023-08-17T11:54:04;10.30;;;9.15;;
69463;SDS011;56665;41.106;16.688;2023-08-17T11:57:10;10.45;;;8.98;;
69463;SDS011;56665;41.106;16.688;2023-08-17T12:00:19;10.38;;;9.35;;
69463;SDS011;56665;41.106;16.688;2023-08-17T12:03:23;11.40;;;10.20;;
69463;SDS011;56665;41.106;16.688;2023-08-17T12:06:29;13.48;;;10.50;;
69463;SDS011;56665;41.106;16.688;2023-08-17T12:09:34;12.10;;;9.15;;
69463;SDS011;56665;41.106;16.688;2023-08-17T12:12:37;11.13;;;9.90;;
69463;SDS011;56665;41.106;16.688;2023-08-17T12:15:42;12.82;;;9.68;;
69463;SDS011;56665;41.106;16.688;2023-08-17T12:18:49;16.35;;;10.13;;
69463;SDS011;56665;41.106;16.688;2023-08-17T12:21:56;13.30;;;9.90;;
69463;SDS011;56665;41.106;16.688;2023-08-17T12:25:02;13.65;;;10.25;;
69463;SDS011;56665;41.106;16.688;2023-08-17T12:28:07;10.95;;;9.73;;
69463;SDS011;56665;41.106;16.688;2023-08-17T12:31:10;12.57;;;9.45;;
69463;SDS011;56665;41.106;16.688;2023-08-17T12:34:14;10.45;;;9.45;;
69463;SDS011;56665;41.106;16.688;2023-08-17T12:37:18;12.93;;;9.00;;
69463;SDS011;56665;41.106;16.688;2023-08-17T12:40:28;14.10;;;9.18;;
69463;SDS011;56665;41.106;16.688;2023-08-17T12:43:32;9.73;;;8.80;;
69463;SDS011;56665;41.106;16.688;2023-08-17T12:46:36;12.98;;;9.20;;
69463;SDS011;56665;41.106;16.688;2023-08-17T12:49:39;9.82;;;8.90;;
69463;SDS011;56665;41.106;16.688;2023-08-17T12:52:43;9.65;;;8.63;;
69463;SDS011;56665;41.106;16.688;2023-08-17T12:55:47;11.85;;;8.70;;
69463;SDS011;56665;41.106;16.688;2023-08-17T12:58:52;10.38;;;8.75;;
69463;SDS011;56665;41.106;16.688;2023-08-17T13:01:56;9.50;;;8.50;;
69463;SDS011;56665;41.106;16.688;2023-08-17T13:05:00;10.45;;;8.30;;
69463;SDS011;56665;41.106;16.688;2023-08-17T13:08:04;9.30;;;8.13;;
69463;SDS011;56665;41.106;16.688;2023-08-17T13:11:08;8.68;;;7.78;;
69463;SDS011;56665;41.106;16.688;2023-08-17T13:14:15;8.70;;;7.50;;
69463;SDS011;56665;41.106;16.688;2023-08-17T13:17:21;8.35;;;7.50;;
69463;SDS011;56665;41.106;16.688;2023-08-17T13:20:25;8.50;;;6.85;;
69463;SDS011;56665;41.106;16.688;2023-08-17T13:23:29;7.97;;;6.45;;
69463;SDS011;56665;41.106;16.688;2023-08-17T13:26:33;7.47;;;6.40;;
69463;SDS011;56665;41.106;16.688;2023-08-17T13:29:38;7.15;;;5.85;;
69463;SDS011;56665;41.106;16.688;2023-08-17T13:32:43;7.45;;;6.13;;
69463;SDS011;56665;41.106;16.688;2023-08-17T13:35:47;6.72;;;6.00;;
69463;SDS011;56665;41.106;16.688;2023-08-17T13:38:51;8.10;;;6.72;;
69463;SDS011;56665;41.106;16.688;2023-08-17T13:41:55;8.73;;;6.80;;
69463;SDS011;56665;41.106;16.688;2023-08-17T13:44:59;9.07;;;6.80;;
69463;SDS011;56665;41.106;16.688;2023-08-17T13:48:03;8.57;;;6.75;;
69463;SDS011;56665;41.106;16.688;2023-08-17T13:51:08;8.40;;;7.50;;
69463;SDS011;56665;41.106;16.688;2023-08-17T13:54:13;9.35;;;7.60;;
69463;SDS011;56665;41.106;16.688;2023-08-17T13:57:17;10.73;;;7.75;;
69463;SDS011;56665;41.106;16.688;2023-08-17T14:00:21;9.73;;;7.30;;
69463;SDS011;56665;41.106;16.688;2023-08-17T14:03:25;8.50;;;7.22;;
69463;SDS011;56665;41.106;16.688;2023-08-17T14:06:29;8.80;;;7.38;;
69463;SDS011;56665;41.106;16.688;2023-08-17T14:09:33;9.70;;;7.57;;
69463;SDS011;56665;41.106;16.688;2023-08-17T14:12:36;9.43;;;7.35;;
69463;SDS011;56665;41.106;16.688;2023-08-17T14:15:41;8.45;;;7.57;;
69463;SDS011;56665;41.106;16.688;2023-08-17T14:18:46;11.15;;;7.88;;
69463;SDS011;56665;41.106;16.688;2023-08-17T14:21:50;11.13;;;8.30;;
69463;SDS011;56665;41.106;16.688;2023-08-17T14:24:55;9.77;;;8.18;;
69463;SDS011;56665;41.106;16.688;2023-08-17T14:27:59;8.93;;;8.02;;
69463;SDS011;56665;41.106;16.688;2023-08-17T14:31:03;10.13;;;8.57;;
69463;SDS011;56665;41.106;16.688;2023-08-17T14:34:07;11.70;;;9.05;;
69463;SDS011;56665;41.106;16.688;2023-08-17T14:37:11;10.07;;;8.80;;
69463;SDS011;56665;41.106;16.688;2023-08-17T14:40:14;10.75;;;8.50;;
69463;SDS011;56665;41.106;16.688;2023-08-17T14:43:18;10.00;;;9.02;;
69463;SDS011;56665;41.106;16.688;2023-08-17T14:46:22;13.13;;;8.77;;
69463;SDS011;56665;41.106;16.688;2023-08-17T14:49:26;11.38;;;9.55;;
69463;SDS011;56665;41.106;16.688;2023-08-17T14:52:32;12.43;;;8.60;;
69463;SDS011;56665;41.106;16.688;2023-08-17T14:55:36;8.70;;;7.53;;
69463;SDS011;56665;41.106;16.688;2023-08-17T14:58:40;11.18;;;7.55;;
69463;SDS011;56665;41.106;16.688;2023-08-17T15:01:44;11.13;;;7.05;;
69463;SDS011;56665;41.106;16.688;2023-08-17T15:04:48;10.93;;;7.03;;
69463;SDS011;56665;41.106;16.688;2023-08-17T15:07:51;8.90;;;6.68;;
69463;SDS011;56665;41.106;16.688;2023-08-17T15:10:55;9.10;;;6.90;;
69463;SDS011;56665;41.106;16.688;2023-08-17T15:14:04;9.60;;;6.65;;
69463;SDS011;56665;41.106;16.688;2023-08-17T15:17:08;10.85;;;6.50;;
69463;SDS011;56665;41.106;16.688;2023-08-17T15:20:16;8.20;;;6.15;;
69463;SDS011;56665;41.106;16.688;2023-08-17T15:23:20;9.65;;;6.32;;
69463;SDS011;56665;41.106;16.688;2023-08-17T15:26:26;9.02;;;6.60;;
69463;SDS011;56665;41.106;16.688;2023-08-17T15:29:29;10.85;;;6.60;;
69463;SDS011;56665;41.106;16.688;2023-08-17T15:32:33;8.23;;;6.53;;
69463;SDS011;56665;41.106;16.688;2023-08-17T15:35:39;10.90;;;6.47;;
69463;SDS011;56665;41.106;16.688;2023-08-17T15:38:42;24.75;;;9.75;;
69463;SDS011;56665;41.106;16.688;2023-08-17T15:41:46;13.07;;;6.70;;
69463;SDS011;56665;41.106;16.688;2023-08-17T15:44:50;15.73;;;7.65;;
69463;SDS011;56665;41.106;16.688;2023-08-17T15:47:55;10.82;;;7.10;;
69463;SDS011;56665;41.106;16.688;2023-08-17T15:50:59;11.63;;;6.90;;
69463;SDS011;56665;41.106;16.688;2023-08-17T15:54:03;11.88;;;7.15;;
69463;SDS011;56665;41.106;16.688;2023-08-17T15:57:08;9.07;;;6.53;;
69463;SDS011;56665;41.106;16.688;2023-08-17T16:00:12;7.80;;;6.45;;
69463;SDS011;56665;41.106;16.688;2023-08-17T16:03:16;12.52;;;7.40;;
69463;SDS011;56665;41.106;16.688;2023-08-17T16:06:21;9.77;;;6.32;;
69463;SDS011;56665;41.106;16.688;2023-08-17T16:09:25;9.57;;;6.32;;
69463;SDS011;56665;41.106;16.688;2023-08-17T16:12:29;8.50;;;6.50;;
69463;SDS011;56665;41.106;16.688;2023-08-17T16:15:33;10.27;;;6.20;;
69463;SDS011;56665;41.106;16.688;2023-08-17T16:18:37;10.15;;;6.40;;
69463;SDS011;56665;41.106;16.688;2023-08-17T16:21:40;9.57;;;6.47;;
69463;SDS011;56665;41.106;16.688;2023-08-17T16:24:44;11.35;;;6.20;;
69463;SDS011;56665;41.106;16.688;2023-08-17T16:27:48;9.75;;;6.18;;
69463;SDS011;56665;41.106;16.688;2023-08-17T16:30:52;8.15;;;6.20;;
69463;SDS011;56665;41.106;16.688;2023-08-17T16:33:55;10.55;;;6.35;;
69463;SDS011;56665;41.106;16.688;2023-08-17T16:36:59;8.70;;;6.40;;
69463;SDS011;56665;41.106;16.688;2023-08-17T16:40:07;10.38;;;6.90;;
69463;SDS011;56665;41.106;16.688;2023-08-17T16:43:13;9.32;;;6.50;;
69463;SDS011;56665;41.106;16.688;2023-08-17T16:46:20;11.43;;;6.25;;
69463;SDS011;56665;41.106;16.688;2023-08-17T16:49:24;8.05;;;6.40;;
69463;SDS011;56665;41.106;16.688;2023-08-17T16:52:28;10.23;;;6.40;;
69463;SDS011;56665;41.106;16.688;2023-08-17T16:55:32;8.15;;;5.93;;
69463;SDS011;56665;41.106;16.688;2023-08-17T16:58:38;9.73;;;6.35;;
69463;SDS011;56665;41.106;16.688;2023-08-17T17:01:41;8.98;;;6.65;;
69463;SDS011;56665;41.106;16.688;2023-08-17T17:04:45;8.70;;;6.25;;
69463;SDS011;56665;41.106;16.688;2023-08-17T17:07:50;8.20;;;6.47;;
69463;SDS011;56665;41.106;16.688;2023-08-17T17:10:54;7.85;;;6.05;;
69463;SDS011;56665;41.106;16.688;2023-08-17T17:13:58;9.57;;;6.00;;
69463;SDS011;56665;41.106;16.688;2023-08-17T17:17:03;8.30;;;6.13;;
69463;SDS011;56665;41.106;16.688;2023-08-17T17:20:07;9.82;;;6.38;;
69463;SDS011;56665;41.106;16.688;2023-08-17T17:23:11;9.00;;;6.47;;
69463;SDS011;56665;41.106;16.688;2023-08-17T17:26:16;6.93;;;6.10;;
69463;SDS011;56665;41.106;16.688;2023-08-17T17:29:20;8.50;;;6.93;;
69463;SDS011;56665;41.106;16.688;2023-08-17T17:32:24;9.20;;;7.43;;
69463;SDS011;56665;41.106;16.688;2023-08-17T17:35:30;8.98;;;6.50;;
69463;SDS011;56665;41.106;16.688;2023-08-17T17:38:36;10.50;;;6.47;;
69463;SDS011;56665;41.106;16.688;2023-08-17T17:41:40;9.63;;;6.95;;
69463;SDS011;56665;41.106;16.688;2023-08-17T17:44:44;9.40;;;7.10;;
69463;SDS011;56665;41.106;16.688;2023-08-17T17:47:48;12.00;;;6.78;;
69463;SDS011;56665;41.106;16.688;2023-08-17T17:50:52;8.40;;;6.72;;
69463;SDS011;56665;41.106;16.688;2023-08-17T17:53:56;8.20;;;6.80;;
69463;SDS011;56665;41.106;16.688;2023-08-17T17:57:03;11.18;;;6.97;;
69463;SDS011;56665;41.106;16.688;2023-08-17T18:00:06;8.90;;;7.03;;
69463;SDS011;56665;41.106;16.688;2023-08-17T18:03:15;8.25;;;7.10;;
69463;SDS011;56665;41.106;16.688;2023-08-17T18:06:22;9.27;;;7.20;;